createdAt,value
2018-03-24T00:01:59.244Z,19.40
2018-03-24T00:04:25.895Z,19.23
2018-03-24T00:06:52.583Z,17.73
2018-03-24T00:09:19.264Z,18.77
2018-03-24T00:11:52.232Z,16.60
2018-03-24T00:14:19.595Z,20.40
2018-03-24T00:16:50.348Z,20.95
2018-03-24T00:19:18.376Z,16.75
2018-03-24T00:21:46.764Z,17.75
2018-03-24T00:24:17.458Z,19.17
2018-03-24T00:26:44.120Z,19.62
2018-03-24T00:29:10.881Z,20.67
2018-03-24T00:31:37.564Z,19.23
2018-03-24T00:34:04.213Z,17.33
2018-03-24T00:36:30.897Z,19.83
2018-03-24T00:38:57.556Z,18.37
2018-03-24T00:41:24.244Z,21.90
2018-03-24T00:43:55.024Z,15.63
2018-03-24T00:46:26.192Z,18.40
2018-03-24T00:48:52.936Z,15.27
2018-03-24T00:51:19.990Z,16.00
2018-03-24T00:53:46.649Z,18.30
2018-03-24T00:56:13.448Z,15.68
2018-03-24T00:58:40.180Z,15.30
2018-03-24T01:01:07.436Z,23.17
2018-03-24T01:03:34.838Z,13.70
2018-03-24T01:06:01.580Z,16.87
2018-03-24T01:08:28.201Z,19.12
2018-03-24T01:11:00.051Z,19.17
2018-03-24T01:13:27.564Z,16.00
2018-03-24T01:15:57.232Z,19.12
2018-03-24T01:18:24.499Z,16.85
2018-03-24T01:20:51.354Z,19.33
2018-03-24T01:23:18.632Z,17.58
2018-03-24T01:25:49.828Z,18.15
2018-03-24T01:28:17.780Z,18.48
2018-03-24T01:30:47.928Z,18.58
2018-03-24T01:33:15.643Z,17.40
2018-03-24T01:35:46.686Z,17.83
2018-03-24T01:38:14.496Z,17.95
2018-03-24T01:40:41.317Z,14.93
2018-03-24T01:43:08.052Z,18.77
2018-03-24T01:45:38.859Z,19.92
2018-03-24T01:48:06.310Z,20.67
2018-03-24T01:50:37.121Z,16.50
2018-03-24T01:53:03.806Z,18.10
2018-03-24T01:55:30.495Z,18.12
2018-03-24T01:57:57.905Z,17.42
2018-03-24T02:00:26.196Z,16.45
2018-03-24T02:03:01.349Z,19.98
2018-03-24T02:05:28.620Z,15.52
2018-03-24T02:07:59.573Z,15.55
2018-03-24T02:10:32.191Z,17.48
2018-03-24T02:12:58.877Z,18.58
2018-03-24T02:15:25.674Z,20.25
2018-03-24T02:17:56.608Z,15.02
2018-03-24T02:20:23.289Z,18.67
2018-03-24T02:22:50.036Z,18.70
2018-03-24T02:25:16.696Z,16.83
2018-03-24T02:27:47.394Z,17.87
2018-03-24T02:30:17.824Z,26.67
2018-03-24T02:32:48.653Z,19.48
2018-03-24T02:35:15.394Z,18.70
2018-03-24T02:37:42.081Z,15.77
2018-03-24T02:40:08.795Z,18.50
2018-03-24T02:42:35.525Z,17.70
2018-03-24T02:45:02.200Z,17.73
2018-03-24T02:47:28.928Z,19.33
2018-03-24T02:49:55.633Z,17.00
2018-03-24T02:52:23.407Z,16.00
2018-03-24T02:54:50.153Z,17.80
2018-03-24T02:57:18.351Z,20.90
2018-03-24T02:59:46.238Z,17.70
2018-03-24T03:02:21.029Z,15.52
2018-03-24T03:04:49.325Z,18.30
2018-03-24T03:07:16.474Z,17.27
2018-03-24T03:09:43.143Z,18.73
2018-03-24T03:12:14.320Z,17.40
2018-03-24T03:14:41.566Z,15.10
2018-03-24T03:17:08.457Z,20.08
2018-03-24T03:19:36.022Z,15.48
2018-03-24T03:22:02.748Z,18.50
2018-03-24T03:24:30.490Z,17.17
2018-03-24T03:26:58.398Z,14.68
2018-03-24T03:29:25.854Z,18.52
2018-03-24T03:32:09.073Z,18.10
2018-03-24T03:34:35.695Z,18.10
2018-03-24T03:37:02.556Z,21.60
2018-03-24T03:39:29.389Z,17.60
2018-03-24T03:41:56.193Z,17.65
2018-03-24T03:44:29.041Z,18.02
2018-03-24T03:46:56.214Z,18.08
2018-03-24T03:49:22.925Z,18.30
2018-03-24T03:51:50.397Z,17.05
2018-03-24T03:54:18.007Z,16.05
2018-03-24T03:59:38.246Z,16.83
2018-03-24T04:02:09.459Z,18.55
2018-03-24T04:10:06.912Z,16.17
2018-03-24T04:12:37.716Z,15.77
2018-03-24T04:15:12.260Z,18.08
2018-03-24T04:17:39.885Z,18.85
2018-03-24T04:20:08.628Z,17.48
2018-03-24T04:22:37.151Z,19.95
2018-03-24T04:25:04.442Z,21.73
2018-03-24T04:27:31.955Z,19.95
2018-03-24T04:29:58.693Z,19.90
2018-03-24T04:32:28.985Z,19.40
2018-03-24T04:35:04.499Z,21.23
2018-03-24T04:37:32.380Z,20.15
2018-03-24T04:40:08.804Z,18.33
2018-03-24T04:42:39.419Z,18.30
2018-03-24T04:45:12.040Z,15.55
2018-03-24T04:47:39.020Z,17.35
2018-03-24T04:50:09.772Z,16.67
2018-03-24T04:52:36.400Z,19.10
2018-03-24T04:55:03.076Z,21.17
2018-03-24T04:57:30.333Z,19.08
2018-03-24T04:59:57.962Z,19.15
2018-03-24T05:02:35.396Z,21.45
2018-03-24T05:05:02.891Z,17.60
2018-03-24T05:07:33.735Z,22.20
2018-03-24T05:10:00.721Z,22.80
2018-03-24T05:12:31.254Z,18.70
2018-03-24T05:15:06.076Z,19.45
2018-03-24T05:17:37.632Z,18.60
2018-03-24T05:20:08.577Z,15.90
2018-03-24T05:22:35.319Z,17.15
2018-03-24T05:25:02.184Z,17.75
2018-03-24T05:27:29.818Z,19.52
2018-03-24T05:29:59.398Z,19.67
2018-03-24T05:32:36.220Z,21.70
2018-03-24T05:35:02.874Z,16.92
2018-03-24T05:37:29.600Z,20.52
2018-03-24T05:39:56.814Z,18.02
2018-03-24T05:42:24.351Z,20.27
2018-03-24T05:44:51.066Z,18.52
2018-03-24T05:47:17.916Z,17.35
2018-03-24T05:49:48.460Z,19.37
2018-03-24T05:52:16.615Z,16.45
2018-03-24T05:54:43.883Z,17.27
2018-03-24T05:57:12.577Z,16.08
2018-03-24T05:59:45.467Z,17.37
2018-03-24T06:02:12.869Z,14.87
2018-03-24T06:04:39.672Z,16.73
2018-03-24T06:07:10.385Z,17.33
2018-03-24T06:09:37.724Z,16.33
2018-03-24T06:12:04.545Z,17.60
2018-03-24T06:14:37.082Z,17.92
2018-03-24T06:17:03.890Z,15.82
2018-03-24T06:19:31.534Z,17.45
2018-03-24T06:22:02.868Z,14.77
2018-03-24T06:24:29.610Z,15.88
2018-03-24T06:26:56.540Z,13.38
2018-03-24T06:29:23.959Z,16.00
2018-03-24T06:31:53.609Z,14.95
2018-03-24T06:34:22.881Z,14.27
2018-03-24T06:37:04.964Z,18.87
2018-03-24T06:39:36.532Z,16.10
2018-03-24T06:42:09.433Z,14.55
2018-03-24T06:44:37.198Z,12.45
2018-03-24T06:47:12.568Z,13.55
2018-03-24T06:49:40.205Z,17.05
2018-03-24T06:52:06.837Z,13.40
2018-03-24T06:54:33.500Z,13.88
2018-03-24T06:57:00.172Z,17.98
2018-03-24T06:59:26.816Z,13.65
2018-03-24T07:01:53.448Z,11.90
2018-03-24T07:04:20.131Z,12.00
2018-03-24T07:06:46.779Z,16.05
2018-03-24T07:09:13.435Z,10.88
2018-03-24T07:11:40.061Z,14.30
2018-03-24T07:14:06.708Z,11.70
2018-03-24T07:16:33.358Z,12.18
2018-03-24T07:19:00.130Z,10.90
2018-03-24T07:21:26.778Z,13.70
2018-03-24T07:23:53.451Z,11.82
2018-03-24T07:26:20.086Z,11.98
2018-03-24T07:28:46.851Z,12.63
2018-03-24T07:31:14.307Z,13.55
2018-03-24T07:33:40.955Z,14.30
2018-03-24T07:36:07.637Z,12.75
2018-03-24T07:38:34.335Z,12.18
2018-03-24T07:41:01.018Z,13.93
2018-03-24T07:43:27.644Z,12.80
2018-03-24T07:45:54.396Z,13.32
2018-03-24T07:48:21.061Z,14.85
2018-03-24T07:50:47.911Z,14.25
2018-03-24T07:53:14.536Z,11.98
2018-03-24T07:55:41.280Z,16.17
2018-03-24T07:58:07.931Z,12.70
2018-03-24T08:00:34.590Z,12.75
2018-03-24T08:03:01.284Z,14.02
2018-03-24T08:05:27.936Z,12.68
2018-03-24T08:07:54.574Z,12.73
2018-03-24T08:10:25.138Z,15.15
2018-03-24T08:12:51.789Z,13.95
2018-03-24T08:15:18.460Z,13.70
2018-03-24T08:17:45.104Z,13.60
2018-03-24T08:20:11.740Z,13.75
2018-03-24T08:22:38.445Z,14.27
2018-03-24T08:25:05.101Z,15.02
2018-03-24T08:27:32.214Z,16.37
2018-03-24T08:29:58.841Z,13.23
2018-03-24T08:32:25.497Z,12.15
2018-03-24T08:34:52.125Z,15.63
2018-03-24T08:37:18.895Z,11.93
2018-03-24T08:39:45.566Z,13.43
2018-03-24T08:42:12.216Z,12.90
2018-03-24T08:44:38.989Z,15.20
2018-03-24T08:47:05.612Z,13.30
2018-03-24T08:49:32.281Z,15.55
2018-03-24T08:51:58.992Z,15.40
2018-03-24T08:54:25.648Z,13.38
2018-03-24T08:56:52.294Z,15.90
2018-03-24T08:59:19.100Z,14.60
2018-03-24T09:01:45.740Z,15.95
2018-03-24T09:04:12.415Z,17.52
2018-03-24T09:06:39.044Z,14.38
2018-03-24T09:09:05.676Z,17.65
2018-03-24T09:11:32.345Z,17.08
2018-03-24T09:13:59.031Z,16.45
2018-03-24T09:16:25.778Z,17.48
2018-03-24T09:18:52.437Z,14.60
2018-03-24T09:21:19.064Z,17.92
2018-03-24T09:23:46.105Z,14.25
2018-03-24T09:26:12.755Z,14.87
2018-03-24T09:28:39.400Z,15.40
2018-03-24T09:31:06.041Z,17.92
2018-03-24T09:33:32.711Z,17.90
2018-03-24T09:35:59.362Z,16.98
2018-03-24T09:38:26.019Z,18.58
2018-03-24T09:40:52.673Z,17.15
2018-03-24T09:43:19.330Z,15.70
2018-03-24T09:45:45.973Z,19.42
2018-03-24T09:48:12.606Z,18.48
2018-03-24T09:50:39.237Z,19.05
2018-03-24T09:53:05.890Z,19.00
2018-03-24T09:55:32.577Z,20.27
2018-03-24T09:57:59.217Z,19.87
2018-03-24T10:00:25.971Z,18.30
2018-03-24T10:02:52.661Z,19.73
2018-03-24T10:05:19.410Z,17.48
2018-03-24T10:07:46.252Z,22.48
2018-03-24T10:10:12.884Z,20.37
2018-03-24T10:12:39.600Z,19.70
2018-03-24T10:15:06.279Z,24.10
2018-03-24T10:17:32.933Z,21.00
2018-03-24T10:19:59.584Z,26.62
2018-03-24T10:22:41.145Z,21.62
2018-03-24T10:25:07.789Z,22.67
2018-03-24T10:27:34.554Z,19.62
2018-03-24T10:30:01.268Z,20.58
2018-03-24T10:32:27.922Z,20.33
2018-03-24T10:35:00.563Z,18.73
2018-03-24T10:37:27.229Z,21.98
2018-03-24T10:39:53.945Z,21.33
2018-03-24T10:42:20.696Z,23.50
2018-03-24T10:44:47.348Z,21.62
2018-03-24T10:47:13.966Z,24.67
2018-03-24T10:49:41.425Z,24.08
2018-03-24T10:52:08.076Z,22.33
2018-03-24T10:54:34.726Z,18.83
2018-03-24T10:57:01.417Z,21.12
2018-03-24T10:59:28.543Z,21.98
2018-03-24T11:01:55.172Z,21.20
2018-03-24T11:04:21.869Z,19.33
2018-03-24T11:06:48.515Z,21.00
2018-03-24T11:09:15.183Z,20.02
2018-03-24T11:11:41.820Z,25.55
2018-03-24T11:14:08.480Z,22.08
2018-03-24T11:16:36.093Z,20.25
2018-03-24T11:19:06.536Z,18.98
2018-03-24T11:21:33.293Z,18.75
2018-03-24T11:24:01.312Z,18.90
2018-03-24T11:26:28.711Z,18.25
2018-03-24T11:28:59.684Z,19.65
2018-03-24T11:31:29.173Z,22.90
2018-03-24T11:33:55.848Z,20.12
2018-03-24T11:36:22.513Z,16.83
2018-03-24T11:38:54.076Z,20.33
2018-03-24T11:41:28.806Z,15.57
2018-03-24T11:43:59.562Z,15.65
2018-03-24T11:46:27.684Z,16.70
2018-03-24T11:48:54.418Z,15.88
2018-03-24T11:51:21.088Z,18.05
2018-03-24T11:53:50.045Z,17.27
2018-03-24T11:56:20.800Z,19.02
2018-03-24T11:58:48.832Z,18.42
2018-03-24T12:01:16.405Z,17.05
2018-03-24T12:03:43.047Z,15.85
2018-03-24T12:06:13.907Z,15.20
2018-03-24T12:08:42.676Z,17.42
2018-03-24T12:11:09.431Z,15.85
2018-03-24T12:13:37.575Z,16.40
2018-03-24T12:16:04.585Z,18.98
2018-03-24T12:18:31.593Z,15.38
2018-03-24T12:21:02.149Z,19.30
2018-03-24T12:23:28.822Z,19.42
2018-03-24T12:25:55.539Z,16.80
2018-03-24T12:28:23.036Z,19.02
2018-03-24T12:30:50.684Z,21.20
2018-03-24T12:33:17.500Z,19.98
2018-03-24T12:35:44.774Z,20.15
2018-03-24T12:38:15.785Z,18.20
2018-03-24T12:40:42.797Z,18.25
2018-03-24T12:43:09.602Z,15.38
2018-03-24T12:50:49.150Z,12.43
2018-03-24T12:53:18.038Z,14.68
2018-03-24T12:55:52.455Z,14.50
2018-03-24T12:58:19.130Z,14.68
2018-03-24T13:00:51.505Z,15.10
2018-03-24T13:03:40.842Z,15.23
2018-03-24T13:06:09.165Z,16.00
2018-03-24T13:09:00.659Z,14.90
2018-03-24T13:11:40.508Z,16.37
2018-03-24T13:14:08.718Z,13.68
2018-03-24T13:16:35.368Z,15.85
2018-03-24T13:19:02.125Z,15.27
2018-03-24T13:21:28.773Z,15.32
2018-03-24T13:23:56.732Z,16.80
2018-03-24T13:29:09.125Z,17.20
2018-03-24T13:31:35.826Z,15.57
2018-03-24T13:34:02.461Z,19.05
2018-03-24T13:36:29.125Z,20.60
2018-03-24T13:38:55.777Z,15.02
2018-03-24T13:41:23.363Z,16.33
2018-03-24T13:44:02.130Z,18.58
2018-03-24T13:46:33.151Z,20.00
2018-03-24T13:49:10.509Z,20.02
2018-03-24T13:51:37.221Z,16.58
2018-03-24T13:54:03.903Z,19.58
2018-03-24T13:56:30.603Z,16.40
2018-03-24T13:58:57.982Z,16.20
2018-03-24T14:01:24.656Z,20.37
2018-03-24T14:03:52.013Z,17.77
2018-03-24T14:06:20.157Z,17.25
2018-03-24T14:08:52.421Z,17.77
2018-03-24T14:14:02.277Z,17.40
2018-03-24T14:16:34.252Z,17.48
2018-03-24T14:19:00.974Z,16.50
2018-03-24T14:21:27.614Z,17.85
2018-03-24T14:23:54.250Z,15.88
2018-03-24T14:26:20.938Z,16.30
2018-03-24T14:28:47.611Z,16.05
2018-03-24T14:31:14.272Z,16.33
2018-03-24T14:33:40.980Z,14.30
2018-03-24T14:36:07.704Z,17.52
2018-03-24T14:38:35.136Z,17.20
2018-03-24T14:41:01.785Z,17.87
2018-03-24T14:43:28.530Z,15.43
2018-03-24T14:45:55.851Z,16.25
2018-03-24T14:48:22.514Z,18.10
2018-03-24T14:50:49.190Z,15.32
2018-03-24T14:53:15.814Z,13.60
2018-03-24T14:55:42.490Z,18.52
2018-03-24T14:58:09.113Z,15.63
2018-03-24T15:00:35.774Z,15.30
2018-03-24T15:03:02.420Z,18.60
2018-03-24T15:05:29.128Z,15.05
2018-03-24T15:07:55.762Z,14.80
2018-03-24T15:10:22.426Z,16.95
2018-03-24T15:12:49.146Z,13.80
2018-03-24T15:15:15.778Z,17.62
2018-03-24T15:17:42.452Z,18.37
2018-03-24T15:20:09.161Z,21.20
2018-03-24T15:22:35.831Z,19.75
2018-03-24T15:25:02.494Z,17.60
2018-03-24T15:27:29.163Z,15.73
2018-03-24T15:30:01.727Z,13.05
2018-03-24T15:32:49.026Z,19.08
2018-03-24T15:35:21.489Z,17.60
2018-03-24T15:37:48.164Z,16.90
2018-03-24T15:40:14.857Z,17.30
2018-03-24T15:42:42.994Z,19.00
2018-03-24T15:45:09.629Z,18.05
2018-03-24T15:47:36.306Z,16.80
2018-03-24T15:50:02.982Z,18.83
2018-03-24T15:52:29.660Z,15.75
2018-03-24T15:54:56.309Z,19.92
2018-03-24T15:57:22.961Z,16.70
2018-03-24T15:59:49.690Z,16.25
2018-03-24T16:02:17.030Z,16.90
2018-03-24T16:04:43.660Z,17.25
2018-03-24T16:07:10.325Z,14.68
2018-03-24T16:09:37.054Z,17.50
2018-03-24T16:12:03.760Z,19.15
2018-03-24T16:14:30.486Z,16.50
2018-03-24T16:16:57.133Z,13.55
2018-03-24T16:19:23.860Z,16.33
2018-03-24T16:21:50.655Z,14.15
2018-03-24T16:24:17.388Z,17.60
2018-03-24T16:26:44.031Z,18.77
2018-03-24T16:29:10.717Z,17.15
2018-03-24T16:31:37.388Z,16.17
2018-03-24T16:34:04.050Z,16.65
2018-03-24T16:36:30.729Z,16.45
2018-03-24T16:38:57.393Z,16.85
2018-03-24T16:41:24.156Z,17.23
2018-03-24T16:43:51.751Z,18.08
2018-03-24T16:46:18.443Z,17.60
2018-03-24T16:48:45.075Z,17.80
2018-03-24T16:51:11.821Z,16.95
2018-03-24T16:53:39.374Z,17.62
2018-03-24T16:56:06.193Z,18.30
2018-03-24T16:58:32.838Z,17.70
2018-03-24T17:00:59.517Z,19.60
2018-03-24T17:03:26.200Z,15.80
2018-03-24T17:05:52.857Z,17.45
2018-03-24T17:08:19.495Z,19.23
2018-03-24T17:10:46.172Z,20.23
2018-03-24T17:13:12.936Z,17.27
2018-03-24T17:15:39.619Z,15.10
2018-03-24T17:18:07.049Z,15.32
2018-03-24T17:20:33.710Z,15.73
2018-03-24T17:23:00.386Z,18.60
2018-03-24T17:25:27.064Z,14.65
2018-03-24T17:27:53.836Z,15.82
2018-03-24T17:30:20.489Z,17.15
2018-03-24T17:32:47.154Z,15.27
2018-03-24T17:35:13.961Z,15.95
2018-03-24T17:37:40.654Z,17.40
2018-03-24T17:40:07.325Z,15.48
2018-03-24T17:42:33.950Z,16.25
2018-03-24T17:45:00.700Z,14.02
2018-03-24T17:47:27.367Z,13.73
2018-03-24T17:49:54.053Z,14.70
2018-03-24T17:52:21.672Z,15.77
2018-03-24T17:54:48.400Z,16.75
2018-03-24T17:57:15.217Z,15.52
2018-03-24T17:59:42.006Z,14.63
2018-03-24T18:02:13.801Z,18.42
2018-03-24T18:04:40.760Z,18.40
2018-03-24T18:07:07.531Z,20.12
2018-03-24T18:09:38.337Z,22.85
2018-03-24T18:12:05.916Z,22.90
2018-03-24T18:14:32.595Z,29.15
2018-03-24T18:16:59.257Z,26.33
2018-03-24T18:19:26.289Z,26.85
2018-03-24T18:21:54.548Z,25.80
2018-03-24T18:24:21.572Z,23.52
2018-03-24T18:26:48.459Z,25.37
2018-03-24T18:29:15.239Z,17.80
2018-03-24T18:31:47.021Z,24.23
2018-03-24T18:34:14.422Z,18.33
2018-03-24T18:36:42.955Z,19.58
2018-03-24T18:39:14.188Z,20.60
2018-03-24T18:41:41.786Z,20.33
2018-03-24T18:44:09.638Z,25.25
2018-03-24T18:46:36.507Z,64.60
2018-03-24T18:49:03.237Z,52.60
2018-03-24T18:51:30.010Z,31.62
2018-03-24T18:53:56.852Z,22.70
2018-03-24T18:56:23.583Z,22.42
2018-03-24T18:58:50.274Z,25.00
2018-03-24T19:01:17.712Z,26.60
2018-03-24T19:03:44.422Z,23.20
2018-03-24T19:06:11.185Z,19.33
2018-03-24T19:08:38.846Z,21.17
2018-03-24T19:11:07.183Z,19.75
2018-03-24T19:13:33.949Z,21.17
2018-03-24T19:16:01.702Z,18.10
2018-03-24T19:18:33.966Z,17.67
2018-03-24T19:21:02.092Z,19.98
2018-03-24T19:23:28.788Z,19.30
2018-03-24T19:25:55.516Z,21.65
2018-03-24T19:28:22.391Z,17.95
2018-03-24T19:30:50.294Z,26.33
2018-03-24T19:33:17.891Z,24.52
2018-03-24T19:35:44.700Z,23.08
2018-03-24T19:38:12.448Z,25.25
2018-03-24T19:40:39.314Z,25.67
2018-03-24T19:43:06.433Z,23.55
2018-03-24T19:45:33.322Z,23.80
2018-03-24T19:48:00.146Z,25.92
2018-03-24T19:50:26.923Z,22.58
2018-03-24T19:52:54.131Z,23.95
2018-03-24T19:55:21.885Z,22.37
2018-03-24T19:57:48.900Z,22.62
2018-03-24T20:00:16.124Z,23.38
2018-03-24T20:02:42.973Z,23.00
2018-03-24T20:05:10.501Z,21.75
2018-03-24T20:07:41.420Z,20.77
2018-03-24T20:10:08.754Z,23.83
2018-03-24T20:12:35.852Z,19.17
2018-03-24T20:15:02.668Z,19.10
2018-03-24T20:17:31.039Z,22.45
2018-03-24T20:19:59.360Z,21.40
2018-03-24T20:22:26.993Z,24.23
2018-03-24T20:24:57.666Z,19.95
2018-03-24T20:27:28.709Z,22.60
2018-03-24T20:29:58.449Z,22.02
2018-03-24T20:32:25.585Z,21.95
2018-03-24T20:34:53.278Z,23.12
2018-03-24T20:37:20.547Z,26.20
2018-03-24T20:39:47.456Z,26.08
2018-03-24T20:42:14.493Z,20.88
2018-03-24T20:44:41.518Z,23.55
2018-03-24T20:47:13.373Z,21.55
2018-03-24T20:49:40.279Z,20.60
2018-03-24T20:52:07.070Z,22.92
2018-03-24T20:54:34.289Z,20.15
2018-03-24T20:57:01.021Z,22.83
2018-03-24T20:59:27.733Z,19.25
2018-03-24T21:01:54.601Z,18.58
2018-03-24T21:04:21.285Z,21.00
2018-03-24T21:06:47.942Z,20.15
2018-03-24T21:09:14.671Z,18.85
2018-03-24T21:11:45.776Z,18.95
2018-03-24T21:14:13.117Z,19.55
2018-03-24T21:16:39.833Z,24.87
2018-03-24T21:19:06.673Z,19.15
2018-03-24T21:21:33.335Z,20.02
2018-03-24T21:24:00.698Z,21.58
2018-03-24T21:26:28.767Z,19.77
2018-03-24T21:28:55.499Z,18.37
2018-03-24T21:31:22.180Z,20.83
2018-03-24T21:33:49.483Z,21.33
2018-03-24T21:36:16.171Z,17.67
2018-03-24T21:38:42.932Z,20.08
2018-03-24T21:41:09.725Z,20.35
2018-03-24T21:43:37.525Z,20.48
2018-03-24T21:46:04.312Z,18.37
2018-03-24T21:48:30.979Z,21.48
2018-03-24T21:50:57.770Z,18.83
2018-03-24T21:53:25.381Z,18.33
2018-03-24T21:55:52.348Z,19.98
2018-03-24T21:58:20.114Z,18.58
2018-03-24T22:00:47.314Z,20.40
2018-03-24T22:03:18.101Z,19.42
2018-03-24T22:05:45.000Z,20.88
2018-03-24T22:08:11.710Z,17.58
2018-03-24T22:10:47.132Z,16.35
2018-03-24T22:13:20.210Z,22.02
2018-03-24T22:15:46.857Z,22.98
2018-03-24T22:18:16.225Z,18.60
2018-03-24T22:20:42.877Z,21.35
2018-03-24T22:23:10.453Z,20.02
2018-03-24T22:25:42.293Z,19.67
2018-03-24T22:28:09.049Z,19.52
2018-03-24T22:30:35.743Z,19.65
2018-03-24T22:33:06.328Z,20.55
2018-03-24T22:35:40.777Z,18.35
2018-03-24T22:38:07.574Z,25.52
2018-03-24T22:40:38.751Z,19.87
2018-03-24T22:43:10.341Z,21.73
2018-03-24T22:45:41.697Z,18.75
2018-03-24T22:48:08.978Z,19.15
2018-03-24T22:50:35.646Z,22.90
2018-03-24T22:53:11.275Z,17.85
2018-03-24T22:55:41.799Z,21.35
2018-03-24T22:58:08.511Z,22.98
2018-03-24T23:00:35.980Z,26.40
2018-03-24T23:03:02.717Z,22.95
2018-03-24T23:05:34.065Z,27.25
2018-03-24T23:08:00.725Z,23.25
2018-03-24T23:10:28.108Z,19.42
2018-03-24T23:12:54.951Z,23.65
2018-03-24T23:15:25.923Z,27.23
2018-03-24T23:18:00.689Z,21.27
2018-03-24T23:20:28.732Z,22.13
2018-03-24T23:22:59.287Z,24.75
2018-03-24T23:25:27.846Z,19.60
2018-03-24T23:28:04.105Z,21.92
2018-03-24T23:30:35.649Z,21.35
2018-03-24T23:33:03.163Z,20.62
2018-03-24T23:35:29.910Z,22.33
2018-03-24T23:37:58.173Z,24.85
2018-03-24T23:40:28.838Z,23.00
2018-03-24T23:42:58.247Z,26.25
2018-03-24T23:45:25.561Z,29.45
2018-03-24T23:47:56.449Z,28.73
2018-03-24T23:50:23.138Z,37.25
2018-03-24T23:52:50.864Z,35.10
2018-03-24T23:55:17.518Z,32.88
2018-03-24T23:57:44.329Z,50.45
